ENGLEBRIGHT (USACE) (ENG)

Elevation: 551' · YUBA R basin · Operator: US Army Corps of Engineers

Provisional data, subject to change.
Query executed Saturday at 16:22:33   clock

Select a sensor type for a plot of data.
Note: Reservoir Flows are daily averages.

Earlier

Date RES ELE    STORAGE    RES CHG    OUTFLOW    INFLOW    PPT INC   
 FEET   AF   AF   CFS   CFS   INCHES  
03/01/2015 520.37 64716 -46 -- 721 0.00
03/02/2015 520.47 64793 77 -- 784 0.00
03/03/2015 520.43 64762 -31 -- 731 0.00
03/04/2015 520.94 65155 393 -- 945 0.00
03/05/2015 521.09 65271 116 -- 805 0.00
03/06/2015 520.98 65186 -85 -- 704 0.00
03/07/2015 520.39 64732 -454 -- 518 0.00
03/08/2015 519.63 64150 -582 -- 296 0.00
03/09/2015 519.88 64341 191 -- 839 0.00
03/10/2015 520.28 64647 306 -- 857 0.00
03/11/2015 520.25 64624 -23 -- 589 0.06
03/12/2015 519.92 64371 -253 -- 431 0.00
03/13/2015 520.54 64847 476 -- 797 0.00
03/14/2015 520.49 64808 -39 -- 538 0.00
03/15/2015 520.47 64793 -15 -- 550 0.00
03/16/2015 520.93 65147 354 -- 736 0.00
03/17/2015 521.03 65224 77 -- 596 0.00
03/18/2015 521.14 65309 -- -- 590 0.00
03/19/2015 520.79 65039 -270 -- 407 0.00
03/20/2015 520.52 64831 -208 -- 438 0.00
03/21/2015 520.25 64624 -207 -- 439 0.00
03/22/2015 519.98 64417 -207 -- 438 0.11
03/23/2015 520.05 64471 54 -- 570 0.04
03/24/2015 520.18 64570 99 -- 593 0.00
03/25/2015 520.57 64870 300 -- 694 0.00
03/26/2015 520.83 65070 200 -- 106 0.00
03/27/2015 520.96 65170 100 -- 606 0.00
03/28/2015 -- -- -- -- -- --

Later | Latest

Warning! This data is preliminary and subject to revision.

Show ENG Map | Plot ENG Data | 1 Month ENG Data | Real-Time ENG Data | ENG Info